sensor_id;sensor_type;location;lat;lon;timestamp;pressure;altitude;pressure_sealevel;temperature
71081;BMP180;58740;50.672;18.690;2023-02-03T00:00:06;99545.00;;;1.80
71081;BMP180;58740;50.672;18.690;2023-02-03T00:07:10;99549.20;;;1.70
71081;BMP180;58740;50.672;18.690;2023-02-03T00:09:39;99546.20;;;1.70
71081;BMP180;58740;50.672;18.690;2023-02-03T00:12:08;99544.40;;;1.70
71081;BMP180;58740;50.672;18.690;2023-02-03T00:14:36;99552.60;;;1.70
71081;BMP180;58740;50.672;18.690;2023-02-03T00:17:05;99557.00;;;1.70
71081;BMP180;58740;50.672;18.690;2023-02-03T00:19:32;99558.40;;;1.66
71081;BMP180;58740;50.672;18.690;2023-02-03T00:22:00;99561.60;;;1.60
71081;BMP180;58740;50.672;18.690;2023-02-03T00:24:28;99559.00;;;1.60
71081;BMP180;58740;50.672;18.690;2023-02-03T00:26:56;99563.80;;;1.54
71081;BMP180;58740;50.672;18.690;2023-02-03T00:29:23;99568.00;;;1.50
71081;BMP180;58740;50.672;18.690;2023-02-03T00:31:53;99572.60;;;1.50
71081;BMP180;58740;50.672;18.690;2023-02-03T00:34:21;99569.60;;;1.40
71081;BMP180;58740;50.672;18.690;2023-02-03T00:36:49;99569.60;;;1.40
71081;BMP180;58740;50.672;18.690;2023-02-03T00:39:16;99581.00;;;1.36
71081;BMP180;58740;50.672;18.690;2023-02-03T00:41:44;99579.00;;;1.30
71081;BMP180;58740;50.672;18.690;2023-02-03T00:44:13;99582.20;;;1.30
71081;BMP180;58740;50.672;18.690;2023-02-03T00:46:41;99584.80;;;1.30
71081;BMP180;58740;50.672;18.690;2023-02-03T00:49:09;99578.40;;;1.30
71081;BMP180;58740;50.672;18.690;2023-02-03T00:51:36;99574.80;;;1.30
71081;BMP180;58740;50.672;18.690;2023-02-03T00:54:04;99574.60;;;1.30
71081;BMP180;58740;50.672;18.690;2023-02-03T00:56:32;99566.40;;;1.20
71081;BMP180;58740;50.672;18.690;2023-02-03T00:59:00;99559.60;;;1.20
71081;BMP180;58740;50.672;18.690;2023-02-03T01:01:28;99552.20;;;1.20
71081;BMP180;58740;50.672;18.690;2023-02-03T01:03:56;99551.60;;;1.12
71081;BMP180;58740;50.672;18.690;2023-02-03T01:06:24;99560.80;;;1.10
71081;BMP180;58740;50.672;18.690;2023-02-03T01:08:52;99556.80;;;1.08
71081;BMP180;58740;50.672;18.690;2023-02-03T01:11:26;99560.40;;;1.00
71081;BMP180;58740;50.672;18.690;2023-02-03T01:13:56;99560.00;;;1.00
71081;BMP180;58740;50.672;18.690;2023-02-03T01:16:28;99557.60;;;0.90
71081;BMP180;58740;50.672;18.690;2023-02-03T01:18:57;99561.60;;;0.90
71081;BMP180;58740;50.672;18.690;2023-02-03T01:21:25;99557.00;;;0.90
71081;BMP180;58740;50.672;18.690;2023-02-03T01:23:53;99554.80;;;0.90
71081;BMP180;58740;50.672;18.690;2023-02-03T01:26:22;99548.00;;;0.90
71081;BMP180;58740;50.672;18.690;2023-02-03T01:28:53;99545.00;;;0.90
71081;BMP180;58740;50.672;18.690;2023-02-03T01:31:29;99553.20;;;0.90
71081;BMP180;58740;50.672;18.690;2023-02-03T01:33:57;99545.20;;;0.90
71081;BMP180;58740;50.672;18.690;2023-02-03T01:36:30;99552.00;;;0.90
71081;BMP180;58740;50.672;18.690;2023-02-03T01:38:58;99549.20;;;0.90
71081;BMP180;58740;50.672;18.690;2023-02-03T01:41:33;99536.20;;;0.90
71081;BMP180;58740;50.672;18.690;2023-02-03T01:49:54;99539.80;;;0.80
71081;BMP180;58740;50.672;18.690;2023-02-03T01:52:23;99535.60;;;0.80
71081;BMP180;58740;50.672;18.690;2023-02-03T01:54:55;99527.80;;;0.74
71081;BMP180;58740;50.672;18.690;2023-02-03T01:57:33;99532.00;;;0.70
71081;BMP180;58740;50.672;18.690;2023-02-03T02:00:05;99523.60;;;0.78
71081;BMP180;58740;50.672;18.690;2023-02-03T02:02:35;99524.40;;;0.80
71081;BMP180;58740;50.672;18.690;2023-02-03T02:05:26;99514.00;;;0.82
71081;BMP180;58740;50.672;18.690;2023-02-03T02:07:56;99520.20;;;0.90
71081;BMP180;58740;50.672;18.690;2023-02-03T02:10:25;99518.20;;;0.90
71081;BMP180;58740;50.672;18.690;2023-02-03T02:12:58;99510.20;;;0.90
71081;BMP180;58740;50.672;18.690;2023-02-03T02:15:49;99512.60;;;0.92
71081;BMP180;58740;50.672;18.690;2023-02-03T02:18:39;99514.00;;;0.90
71081;BMP180;58740;50.672;18.690;2023-02-03T02:24:43;99500.60;;;0.82
71081;BMP180;58740;50.672;18.690;2023-02-03T02:30:53;99478.40;;;0.76
71081;BMP180;58740;50.672;18.690;2023-02-03T02:36:30;99464.20;;;0.70
71081;BMP180;58740;50.672;18.690;2023-02-03T02:39:15;99457.80;;;0.70
71081;BMP180;58740;50.672;18.690;2023-02-03T02:44:43;99458.60;;;0.70
71081;BMP180;58740;50.672;18.690;2023-02-03T02:47:20;99460.80;;;0.70
71081;BMP180;58740;50.672;18.690;2023-02-03T02:50:08;99455.20;;;0.68
71081;BMP180;58740;50.672;18.690;2023-02-03T02:52:41;99459.80;;;0.60
71081;BMP180;58740;50.672;18.690;2023-02-03T02:55:20;99465.40;;;0.60
71081;BMP180;58740;50.672;18.690;2023-02-03T02:57:56;99470.40;;;0.60
71081;BMP180;58740;50.672;18.690;2023-02-03T03:00:30;99474.60;;;0.60
71081;BMP180;58740;50.672;18.690;2023-02-03T03:03:11;99474.20;;;0.60
71081;BMP180;58740;50.672;18.690;2023-02-03T03:05:43;99473.40;;;0.52
71081;BMP180;58740;50.672;18.690;2023-02-03T03:08:15;99480.80;;;0.50
71081;BMP180;58740;50.672;18.690;2023-02-03T03:10:45;99473.20;;;0.50
71081;BMP180;58740;50.672;18.690;2023-02-03T03:13:22;99469.20;;;0.50
71081;BMP180;58740;50.672;18.690;2023-02-03T03:15:52;99465.60;;;0.52
71081;BMP180;58740;50.672;18.690;2023-02-03T03:18:33;99457.60;;;0.60
71081;BMP180;58740;50.672;18.690;2023-02-03T03:21:04;99464.20;;;0.60
71081;BMP180;58740;50.672;18.690;2023-02-03T03:23:46;99463.80;;;0.60
71081;BMP180;58740;50.672;18.690;2023-02-03T03:26:35;99466.60;;;0.70
71081;BMP180;58740;50.672;18.690;2023-02-03T03:29:26;99452.00;;;0.70
71081;BMP180;58740;50.672;18.690;2023-02-03T03:31:57;99443.60;;;0.60
71081;BMP180;58740;50.672;18.690;2023-02-03T03:34:25;99440.60;;;0.60
71081;BMP180;58740;50.672;18.690;2023-02-03T03:37:02;99438.40;;;0.60
71081;BMP180;58740;50.672;18.690;2023-02-03T03:39:38;99429.60;;;0.60
71081;BMP180;58740;50.672;18.690;2023-02-03T03:42:23;99424.60;;;0.60
71081;BMP180;58740;50.672;18.690;2023-02-03T03:45:02;99422.80;;;0.50
71081;BMP180;58740;50.672;18.690;2023-02-03T03:50:21;99418.20;;;0.52
71081;BMP180;58740;50.672;18.690;2023-02-03T03:52:51;99415.40;;;0.58
71081;BMP180;58740;50.672;18.690;2023-02-03T03:55:21;99420.60;;;0.60
71081;BMP180;58740;50.672;18.690;2023-02-03T03:58:03;99416.80;;;0.60
71081;BMP180;58740;50.672;18.690;2023-02-03T04:00:36;99417.20;;;0.62
71081;BMP180;58740;50.672;18.690;2023-02-03T04:03:13;99412.80;;;0.60
71081;BMP180;58740;50.672;18.690;2023-02-03T04:05:42;99419.20;;;0.60
71081;BMP180;58740;50.672;18.690;2023-02-03T04:08:10;99414.20;;;0.60
71081;BMP180;58740;50.672;18.690;2023-02-03T04:10:41;99411.40;;;0.60
71081;BMP180;58740;50.672;18.690;2023-02-03T04:13:11;99406.00;;;0.60
71081;BMP180;58740;50.672;18.690;2023-02-03T04:15:39;99403.60;;;0.60
71081;BMP180;58740;50.672;18.690;2023-02-03T04:18:06;99397.80;;;0.58
71081;BMP180;58740;50.672;18.690;2023-02-03T04:20:34;99390.00;;;0.54
71081;BMP180;58740;50.672;18.690;2023-02-03T04:23:02;99389.60;;;0.50
71081;BMP180;58740;50.672;18.690;2023-02-03T04:25:30;99389.00;;;0.58
71081;BMP180;58740;50.672;18.690;2023-02-03T04:27:58;99381.60;;;0.60
71081;BMP180;58740;50.672;18.690;2023-02-03T04:30:26;99377.80;;;0.60
71081;BMP180;58740;50.672;18.690;2023-02-03T04:32:54;99377.40;;;0.60
71081;BMP180;58740;50.672;18.690;2023-02-03T04:35:22;99376.80;;;0.60
71081;BMP180;58740;50.672;18.690;2023-02-03T04:37:50;99375.00;;;0.60
71081;BMP180;58740;50.672;18.690;2023-02-03T04:40:18;99370.80;;;0.60
71081;BMP180;58740;50.672;18.690;2023-02-03T04:42:46;99376.60;;;0.60
71081;BMP180;58740;50.672;18.690;2023-02-03T04:45:13;99374.20;;;0.60
71081;BMP180;58740;50.672;18.690;2023-02-03T04:47:41;99372.00;;;0.52
71081;BMP180;58740;50.672;18.690;2023-02-03T04:50:09;99356.80;;;0.50
71081;BMP180;58740;50.672;18.690;2023-02-03T04:52:37;99352.00;;;0.50
71081;BMP180;58740;50.672;18.690;2023-02-03T04:55:05;99338.60;;;0.50
71081;BMP180;58740;50.672;18.690;2023-02-03T04:57:33;99340.60;;;0.50
71081;BMP180;58740;50.672;18.690;2023-02-03T05:00:01;99328.80;;;0.50
71081;BMP180;58740;50.672;18.690;2023-02-03T05:02:29;99326.00;;;0.50
71081;BMP180;58740;50.672;18.690;2023-02-03T05:04:56;99326.40;;;0.56
71081;BMP180;58740;50.672;18.690;2023-02-03T05:07:24;99321.40;;;0.60
71081;BMP180;58740;50.672;18.690;2023-02-03T05:09:52;99320.80;;;0.50
71081;BMP180;58740;50.672;18.690;2023-02-03T05:12:19;99324.80;;;0.50
71081;BMP180;58740;50.672;18.690;2023-02-03T05:14:47;99321.80;;;0.50
71081;BMP180;58740;50.672;18.690;2023-02-03T05:17:15;99316.40;;;0.48
71081;BMP180;58740;50.672;18.690;2023-02-03T05:19:43;99317.60;;;0.40
71081;BMP180;58740;50.672;18.690;2023-02-03T05:22:11;99315.80;;;0.40
71081;BMP180;58740;50.672;18.690;2023-02-03T05:24:38;99313.00;;;0.40
71081;BMP180;58740;50.672;18.690;2023-02-03T05:27:06;99300.80;;;0.40
71081;BMP180;58740;50.672;18.690;2023-02-03T05:29:34;99297.60;;;0.40
71081;BMP180;58740;50.672;18.690;2023-02-03T05:32:02;99298.80;;;0.40
71081;BMP180;58740;50.672;18.690;2023-02-03T05:34:30;99292.80;;;0.40
71081;BMP180;58740;50.672;18.690;2023-02-03T05:36:58;99287.00;;;0.32
71081;BMP180;58740;50.672;18.690;2023-02-03T05:39:27;99274.40;;;0.30
71081;BMP180;58740;50.672;18.690;2023-02-03T05:41:55;99266.00;;;0.30
71081;BMP180;58740;50.672;18.690;2023-02-03T05:44:27;99255.00;;;0.30
71081;BMP180;58740;50.672;18.690;2023-02-03T05:46:57;99255.20;;;0.30
71081;BMP180;58740;50.672;18.690;2023-02-03T05:49:25;99257.60;;;0.30
71081;BMP180;58740;50.672;18.690;2023-02-03T05:51:54;99250.00;;;0.30
71081;BMP180;58740;50.672;18.690;2023-02-03T05:54:22;99246.40;;;0.30
71081;BMP180;58740;50.672;18.690;2023-02-03T05:56:51;99241.20;;;0.30
71081;BMP180;58740;50.672;18.690;2023-02-03T05:59:18;99242.20;;;0.32
71081;BMP180;58740;50.672;18.690;2023-02-03T06:01:48;99242.60;;;0.40
71081;BMP180;58740;50.672;18.690;2023-02-03T06:04:16;99232.60;;;0.40
71081;BMP180;58740;50.672;18.690;2023-02-03T06:06:44;99224.60;;;0.40
71081;BMP180;58740;50.672;18.690;2023-02-03T06:09:14;99225.60;;;0.40
71081;BMP180;58740;50.672;18.690;2023-02-03T06:11:41;99229.80;;;0.40
71081;BMP180;58740;50.672;18.690;2023-02-03T06:14:09;99230.80;;;0.40
71081;BMP180;58740;50.672;18.690;2023-02-03T06:16:37;99233.20;;;0.40
71081;BMP180;58740;50.672;18.690;2023-02-03T06:19:05;99225.20;;;0.40
71081;BMP180;58740;50.672;18.690;2023-02-03T06:21:33;99224.60;;;0.40
71081;BMP180;58740;50.672;18.690;2023-02-03T06:24:00;99224.00;;;0.40
71081;BMP180;58740;50.672;18.690;2023-02-03T06:26:28;99230.00;;;0.42
71081;BMP180;58740;50.672;18.690;2023-02-03T06:28:56;99233.00;;;0.50
71081;BMP180;58740;50.672;18.690;2023-02-03T06:31:24;99226.20;;;0.50
71081;BMP180;58740;50.672;18.690;2023-02-03T06:33:52;99214.80;;;0.50
71081;BMP180;58740;50.672;18.690;2023-02-03T06:36:20;99215.20;;;0.50
71081;BMP180;58740;50.672;18.690;2023-02-03T06:38:51;99205.40;;;0.50
71081;BMP180;58740;50.672;18.690;2023-02-03T06:41:19;99203.20;;;0.50
71081;BMP180;58740;50.672;18.690;2023-02-03T06:43:47;99191.40;;;0.50
71081;BMP180;58740;50.672;18.690;2023-02-03T06:46:17;99184.60;;;0.50
71081;BMP180;58740;50.672;18.690;2023-02-03T06:48:44;99182.00;;;0.50
71081;BMP180;58740;50.672;18.690;2023-02-03T06:51:12;99166.60;;;0.50
71081;BMP180;58740;50.672;18.690;2023-02-03T06:53:40;99162.00;;;0.50
71081;BMP180;58740;50.672;18.690;2023-02-03T06:56:08;99157.40;;;0.50
71081;BMP180;58740;50.672;18.690;2023-02-03T06:58:35;99160.00;;;0.50
71081;BMP180;58740;50.672;18.690;2023-02-03T07:01:03;99152.80;;;0.50
71081;BMP180;58740;50.672;18.690;2023-02-03T07:03:31;99147.80;;;0.50
71081;BMP180;58740;50.672;18.690;2023-02-03T07:05:59;99146.20;;;0.50
71081;BMP180;58740;50.672;18.690;2023-02-03T07:08:26;99144.20;;;0.54
71081;BMP180;58740;50.672;18.690;2023-02-03T07:10:54;99140.40;;;0.54
71081;BMP180;58740;50.672;18.690;2023-02-03T07:13:22;99130.40;;;0.50
71081;BMP180;58740;50.672;18.690;2023-02-03T07:15:50;99125.00;;;0.50
71081;BMP180;58740;50.672;18.690;2023-02-03T07:18:18;99124.20;;;0.50
71081;BMP180;58740;50.672;18.690;2023-02-03T07:21:12;99119.00;;;0.58
71081;BMP180;58740;50.672;18.690;2023-02-03T07:23:40;99116.40;;;0.60
71081;BMP180;58740;50.672;18.690;2023-02-03T07:26:09;99113.60;;;0.60
71081;BMP180;58740;50.672;18.690;2023-02-03T07:28:40;99106.40;;;0.70
71081;BMP180;58740;50.672;18.690;2023-02-03T07:31:08;99106.00;;;0.70
71081;BMP180;58740;50.672;18.690;2023-02-03T07:33:37;99100.60;;;0.70
71081;BMP180;58740;50.672;18.690;2023-02-03T07:36:06;99097.40;;;0.70
71081;BMP180;58740;50.672;18.690;2023-02-03T07:38:35;99094.20;;;0.70
71081;BMP180;58740;50.672;18.690;2023-02-03T07:41:05;99094.00;;;0.70
71081;BMP180;58740;50.672;18.690;2023-02-03T07:43:33;99094.00;;;0.70
71081;BMP180;58740;50.672;18.690;2023-02-03T07:46:01;99091.40;;;0.70
71081;BMP180;58740;50.672;18.690;2023-02-03T07:48:29;99090.00;;;0.70
71081;BMP180;58740;50.672;18.690;2023-02-03T07:50:56;99091.80;;;0.70
71081;BMP180;58740;50.672;18.690;2023-02-03T07:53:25;99090.40;;;0.80
71081;BMP180;58740;50.672;18.690;2023-02-03T07:55:53;99083.80;;;0.80
71081;BMP180;58740;50.672;18.690;2023-02-03T07:58:20;99070.40;;;0.90
71081;BMP180;58740;50.672;18.690;2023-02-03T08:00:49;99066.60;;;0.90
71081;BMP180;58740;50.672;18.690;2023-02-03T08:03:16;99064.20;;;0.98
71081;BMP180;58740;50.672;18.690;2023-02-03T08:05:44;99053.20;;;0.94
71081;BMP180;58740;50.672;18.690;2023-02-03T08:08:12;99051.80;;;0.90
71081;BMP180;58740;50.672;18.690;2023-02-03T08:10:39;99047.60;;;0.90
71081;BMP180;58740;50.672;18.690;2023-02-03T08:13:07;99045.00;;;0.90
71081;BMP180;58740;50.672;18.690;2023-02-03T08:15:35;99035.20;;;0.90
71081;BMP180;58740;50.672;18.690;2023-02-03T08:18:03;99028.80;;;0.90
71081;BMP180;58740;50.672;18.690;2023-02-03T08:20:31;99031.00;;;0.90
71081;BMP180;58740;50.672;18.690;2023-02-03T08:22:59;99026.20;;;0.90
71081;BMP180;58740;50.672;18.690;2023-02-03T08:25:26;99027.80;;;0.90
71081;BMP180;58740;50.672;18.690;2023-02-03T08:27:54;99019.20;;;1.00
71081;BMP180;58740;50.672;18.690;2023-02-03T08:30:22;99001.40;;;1.00
71081;BMP180;58740;50.672;18.690;2023-02-03T08:32:50;98994.80;;;1.00
71081;BMP180;58740;50.672;18.690;2023-02-03T08:35:18;98995.80;;;1.00
71081;BMP180;58740;50.672;18.690;2023-02-03T08:37:46;98990.60;;;1.00
71081;BMP180;58740;50.672;18.690;2023-02-03T08:40:14;98989.40;;;1.00
71081;BMP180;58740;50.672;18.690;2023-02-03T08:42:42;98985.00;;;1.00
71081;BMP180;58740;50.672;18.690;2023-02-03T08:45:13;98975.60;;;0.92
71081;BMP180;58740;50.672;18.690;2023-02-03T08:47:40;98980.20;;;0.90
71081;BMP180;58740;50.672;18.690;2023-02-03T08:50:09;98974.20;;;0.90
71081;BMP180;58740;50.672;18.690;2023-02-03T08:52:37;98973.00;;;0.90
71081;BMP180;58740;50.672;18.690;2023-02-03T08:55:05;98966.20;;;0.90
71081;BMP180;58740;50.672;18.690;2023-02-03T08:57:34;98963.60;;;0.90
71081;BMP180;58740;50.672;18.690;2023-02-03T09:00:08;98956.80;;;0.90
71081;BMP180;58740;50.672;18.690;2023-02-03T09:02:35;98949.60;;;0.90
71081;BMP180;58740;50.672;18.690;2023-02-03T09:05:04;98944.80;;;0.90
71081;BMP180;58740;50.672;18.690;2023-02-03T09:07:31;98936.20;;;0.90
71081;BMP180;58740;50.672;18.690;2023-02-03T09:09:59;98934.00;;;0.82
71081;BMP180;58740;50.672;18.690;2023-02-03T09:12:27;98930.60;;;0.90
71081;BMP180;58740;50.672;18.690;2023-02-03T09:14:54;98918.80;;;0.86
71081;BMP180;58740;50.672;18.690;2023-02-03T09:17:22;98918.60;;;0.86
71081;BMP180;58740;50.672;18.690;2023-02-03T09:19:50;98902.40;;;0.82
71081;BMP180;58740;50.672;18.690;2023-02-03T09:22:18;98903.60;;;0.80
71081;BMP180;58740;50.672;18.690;2023-02-03T09:24:46;98893.20;;;0.70
71081;BMP180;58740;50.672;18.690;2023-02-03T09:27:15;98882.40;;;0.68
71081;BMP180;58740;50.672;18.690;2023-02-03T09:29:43;98879.80;;;0.60
71081;BMP180;58740;50.672;18.690;2023-02-03T09:32:11;98869.00;;;0.60
71081;BMP180;58740;50.672;18.690;2023-02-03T09:34:42;98861.40;;;0.60
71081;BMP180;58740;50.672;18.690;2023-02-03T09:37:09;98856.00;;;0.60
71081;BMP180;58740;50.672;18.690;2023-02-03T09:39:37;98844.00;;;0.60
71081;BMP180;58740;50.672;18.690;2023-02-03T09:42:11;98829.40;;;0.60
71081;BMP180;58740;50.672;18.690;2023-02-03T09:47:42;98811.00;;;0.50
71081;BMP180;58740;50.672;18.690;2023-02-03T09:50:19;98801.20;;;0.56
71081;BMP180;58740;50.672;18.690;2023-02-03T09:52:49;98797.00;;;0.60
71081;BMP180;58740;50.672;18.690;2023-02-03T09:55:40;98780.80;;;0.62
71081;BMP180;58740;50.672;18.690;2023-02-03T09:58:16;98779.00;;;0.68
71081;BMP180;58740;50.672;18.690;2023-02-03T10:01:10;98768.60;;;0.70
71081;BMP180;58740;50.672;18.690;2023-02-03T10:04:18;98761.40;;;0.68
71081;BMP180;58740;50.672;18.690;2023-02-03T10:06:52;98743.00;;;0.70
71081;BMP180;58740;50.672;18.690;2023-02-03T10:09:51;98736.20;;;0.70
71081;BMP180;58740;50.672;18.690;2023-02-03T10:18:27;98724.60;;;0.80
71081;BMP180;58740;50.672;18.690;2023-02-03T10:21:02;98710.20;;;0.80
71081;BMP180;58740;50.672;18.690;2023-02-03T10:23:38;98708.60;;;0.80
71081;BMP180;58740;50.672;18.690;2023-02-03T10:26:14;98690.00;;;0.80
71081;BMP180;58740;50.672;18.690;2023-02-03T10:29:02;98679.80;;;0.80
71081;BMP180;58740;50.672;18.690;2023-02-03T10:31:35;98673.80;;;0.90
71081;BMP180;58740;50.672;18.690;2023-02-03T10:34:10;98663.40;;;0.90
71081;BMP180;58740;50.672;18.690;2023-02-03T10:36:58;98657.40;;;0.90
71081;BMP180;58740;50.672;18.690;2023-02-03T10:39:43;98647.20;;;0.90
71081;BMP180;58740;50.672;18.690;2023-02-03T10:42:13;98640.20;;;1.00
71081;BMP180;58740;50.672;18.690;2023-02-03T10:44:48;98627.80;;;1.00
71081;BMP180;58740;50.672;18.690;2023-02-03T10:47:27;98619.20;;;1.00
71081;BMP180;58740;50.672;18.690;2023-02-03T10:49:57;98612.60;;;1.00
71081;BMP180;58740;50.672;18.690;2023-02-03T10:52:34;98601.60;;;1.00
71081;BMP180;58740;50.672;18.690;2023-02-03T10:55:27;98588.40;;;1.08
71081;BMP180;58740;50.672;18.690;2023-02-03T10:58:05;98581.20;;;1.10
71081;BMP180;58740;50.672;18.690;2023-02-03T11:00:38;98572.00;;;1.10
71081;BMP180;58740;50.672;18.690;2023-02-03T11:03:21;98562.40;;;1.10
71081;BMP180;58740;50.672;18.690;2023-02-03T11:06:15;98558.80;;;1.10
71081;BMP180;58740;50.672;18.690;2023-02-03T11:08:48;98551.00;;;1.08
71081;BMP180;58740;50.672;18.690;2023-02-03T11:11:23;98538.20;;;1.06
71081;BMP180;58740;50.672;18.690;2023-02-03T11:13:54;98522.20;;;1.10
71081;BMP180;58740;50.672;18.690;2023-02-03T11:16:23;98505.80;;;1.10
71081;BMP180;58740;50.672;18.690;2023-02-03T11:19:19;98497.60;;;1.20
71081;BMP180;58740;50.672;18.690;2023-02-03T11:21:52;98491.00;;;1.22
71081;BMP180;58740;50.672;18.690;2023-02-03T11:24:37;98482.20;;;1.30
71081;BMP180;58740;50.672;18.690;2023-02-03T11:27:13;98477.00;;;1.30
71081;BMP180;58740;50.672;18.690;2023-02-03T11:29:46;98462.40;;;1.30
71081;BMP180;58740;50.672;18.690;2023-02-03T11:32:22;98462.80;;;1.30
71081;BMP180;58740;50.672;18.690;2023-02-03T11:35:19;98462.40;;;1.32
71081;BMP180;58740;50.672;18.690;2023-02-03T11:37:54;98450.00;;;1.40
71081;BMP180;58740;50.672;18.690;2023-02-03T11:40:28;98441.20;;;1.40
71081;BMP180;58740;50.672;18.690;2023-02-03T11:45:27;98428.60;;;1.50
71081;BMP180;58740;50.672;18.690;2023-02-03T11:47:59;98423.00;;;1.50
71081;BMP180;58740;50.672;18.690;2023-02-03T11:56:27;98390.60;;;1.50
71081;BMP180;58740;50.672;18.690;2023-02-03T12:02:27;98369.60;;;1.50
71081;BMP180;58740;50.672;18.690;2023-02-03T12:08:23;98362.00;;;1.60
71081;BMP180;58740;50.672;18.690;2023-02-03T12:14:20;98349.20;;;1.70
71081;BMP180;58740;50.672;18.690;2023-02-03T12:22:54;98320.60;;;1.60
71081;BMP180;58740;50.672;18.690;2023-02-03T12:28:59;98302.40;;;1.70
71081;BMP180;58740;50.672;18.690;2023-02-03T12:31:49;98298.40;;;1.70
71081;BMP180;58740;50.672;18.690;2023-02-03T12:34:51;98287.00;;;1.78
71081;BMP180;58740;50.672;18.690;2023-02-03T12:37:41;98270.20;;;1.78
71081;BMP180;58740;50.672;18.690;2023-02-03T12:40:41;98275.00;;;1.72
71081;BMP180;58740;50.672;18.690;2023-02-03T12:48:55;98243.60;;;1.70
71081;BMP180;58740;50.672;18.690;2023-02-03T12:51:35;98233.20;;;1.70
71081;BMP180;58740;50.672;18.690;2023-02-03T12:54:36;98218.20;;;1.70
71081;BMP180;58740;50.672;18.690;2023-02-03T12:57:19;98211.60;;;1.70
71081;BMP180;58740;50.672;18.690;2023-02-03T13:00:03;98200.80;;;1.70
71081;BMP180;58740;50.672;18.690;2023-02-03T13:02:49;98187.20;;;1.70
71081;BMP180;58740;50.672;18.690;2023-02-03T13:06:03;98181.00;;;1.74
71081;BMP180;58740;50.672;18.690;2023-02-03T13:08:38;98162.60;;;1.80
71081;BMP180;58740;50.672;18.690;2023-02-03T13:14:02;98151.00;;;1.80
71081;BMP180;58740;50.672;18.690;2023-02-03T13:16:39;98142.80;;;1.80
71081;BMP180;58740;50.672;18.690;2023-02-03T13:19:20;98135.20;;;1.80
71081;BMP180;58740;50.672;18.690;2023-02-03T13:21:49;98134.60;;;1.80
71081;BMP180;58740;50.672;18.690;2023-02-03T13:24:20;98121.00;;;1.80
71081;BMP180;58740;50.672;18.690;2023-02-03T13:27:25;98107.60;;;1.80
71081;BMP180;58740;50.672;18.690;2023-02-03T13:33:06;98099.40;;;1.80
71081;BMP180;58740;50.672;18.690;2023-02-03T13:36:15;98084.40;;;1.80
71081;BMP180;58740;50.672;18.690;2023-02-03T13:44:24;98064.20;;;1.86
71081;BMP180;58740;50.672;18.690;2023-02-03T13:46:57;98062.20;;;1.88
71081;BMP180;58740;50.672;18.690;2023-02-03T13:49:33;98051.80;;;1.90
71081;BMP180;58740;50.672;18.690;2023-02-03T13:52:02;98051.40;;;1.90
71081;BMP180;58740;50.672;18.690;2023-02-03T13:54:35;98041.00;;;1.90
71081;BMP180;58740;50.672;18.690;2023-02-03T13:57:19;98045.20;;;2.00
71081;BMP180;58740;50.672;18.690;2023-02-03T13:59:47;98032.20;;;2.00
71081;BMP180;58740;50.672;18.690;2023-02-03T14:04:54;98021.20;;;2.00
71081;BMP180;58740;50.672;18.690;2023-02-03T14:15:27;98007.40;;;2.00
71081;BMP180;58740;50.672;18.690;2023-02-03T14:18:30;98010.20;;;2.00
71081;BMP180;58740;50.672;18.690;2023-02-03T14:21:24;98006.00;;;2.00
71081;BMP180;58740;50.672;18.690;2023-02-03T14:24:05;98000.60;;;2.04
71081;BMP180;58740;50.672;18.690;2023-02-03T14:29:32;98004.60;;;2.10
71081;BMP180;58740;50.672;18.690;2023-02-03T14:32:05;98002.60;;;2.14
71081;BMP180;58740;50.672;18.690;2023-02-03T14:34:43;98001.60;;;2.20
71081;BMP180;58740;50.672;18.690;2023-02-03T14:37:25;98009.80;;;2.20
71081;BMP180;58740;50.672;18.690;2023-02-03T14:43:20;98011.80;;;2.20
71081;BMP180;58740;50.672;18.690;2023-02-03T14:57:51;97977.80;;;2.30
71081;BMP180;58740;50.672;18.690;2023-02-03T15:05:46;97999.40;;;2.30
71081;BMP180;58740;50.672;18.690;2023-02-03T15:08:45;97999.60;;;2.30
71081;BMP180;58740;50.672;18.690;2023-02-03T15:11:28;97994.60;;;2.30
71081;BMP180;58740;50.672;18.690;2023-02-03T15:14:27;97997.80;;;2.40
71081;BMP180;58740;50.672;18.690;2023-02-03T15:17:10;98008.00;;;2.48
71081;BMP180;58740;50.672;18.690;2023-02-03T15:19:41;98006.20;;;2.50
71081;BMP180;58740;50.672;18.690;2023-02-03T15:22:28;98009.20;;;2.50
71081;BMP180;58740;50.672;18.690;2023-02-03T15:25:00;98023.20;;;2.58
71081;BMP180;58740;50.672;18.690;2023-02-03T15:27:32;98036.80;;;2.58
71081;BMP180;58740;50.672;18.690;2023-02-03T15:30:22;98040.40;;;2.60
71081;BMP180;58740;50.672;18.690;2023-02-03T15:33:05;98044.40;;;2.60
71081;BMP180;58740;50.672;18.690;2023-02-03T15:35:36;98060.20;;;2.70
71081;BMP180;58740;50.672;18.690;2023-02-03T15:38:22;98051.40;;;2.70
71081;BMP180;58740;50.672;18.690;2023-02-03T15:40:54;98040.00;;;2.72
71081;BMP180;58740;50.672;18.690;2023-02-03T15:43:37;98042.00;;;2.80
71081;BMP180;58740;50.672;18.690;2023-02-03T15:49:12;98047.40;;;2.80
71081;BMP180;58740;50.672;18.690;2023-02-03T15:51:56;98040.00;;;2.80
71081;BMP180;58740;50.672;18.690;2023-02-03T15:54:36;98042.40;;;2.82
71081;BMP180;58740;50.672;18.690;2023-02-03T15:57:24;98045.00;;;2.90
71081;BMP180;58740;50.672;18.690;2023-02-03T15:59:59;98047.40;;;2.94
71081;BMP180;58740;50.672;18.690;2023-02-03T16:02:33;98045.40;;;3.00
71081;BMP180;58740;50.672;18.690;2023-02-03T16:05:25;98043.60;;;3.00
71081;BMP180;58740;50.672;18.690;2023-02-03T16:07:56;98042.00;;;3.00
71081;BMP180;58740;50.672;18.690;2023-02-03T16:10:46;98044.80;;;3.00
71081;BMP180;58740;50.672;18.690;2023-02-03T16:13:26;98049.60;;;3.00
71081;BMP180;58740;50.672;18.690;2023-02-03T16:16:06;98050.40;;;3.04
71081;BMP180;58740;50.672;18.690;2023-02-03T16:18:55;98052.00;;;3.10
71081;BMP180;58740;50.672;18.690;2023-02-03T16:21:29;98049.00;;;3.10
71081;BMP180;58740;50.672;18.690;2023-02-03T16:23:58;98052.00;;;3.10
71081;BMP180;58740;50.672;18.690;2023-02-03T16:26:29;98053.60;;;3.10
71081;BMP180;58740;50.672;18.690;2023-02-03T16:31:50;98070.40;;;3.10
71081;BMP180;58740;50.672;18.690;2023-02-03T16:34:37;98066.80;;;3.10
71081;BMP180;58740;50.672;18.690;2023-02-03T16:37:33;98073.60;;;3.18
71081;BMP180;58740;50.672;18.690;2023-02-03T16:40:22;98077.00;;;3.20
71081;BMP180;58740;50.672;18.690;2023-02-03T16:43:14;98083.20;;;3.20
71081;BMP180;58740;50.672;18.690;2023-02-03T16:46:00;98077.20;;;3.20